Latest Weather Observations for Urandangi

IDQ60801

Issued at 6:02 pm EST Tuesday 30 June 2015 (issued every 30 minutes, with the page automatically refreshed every 10 minutes)

About weather observations | Map of weather stations | Latest weather observations for QLD | Other Formats
Station Details ID: 037058 Name: URANDANGI AERODROME Lat: -21.60 Lon: 138.37 Height: 178.6 m
Data from the previous 72 hours. | See also: Recent months at Urandangi
Date/Time
EST
Temp
°C
App
Temp
°C
Dew
Point
Rel
Hum
%
Delta-T
°C
Wind Press
QNH
hPa
Press
MSL
hPa
Rain
since 9 am
mm
Dir
 
Spd
km/h
Gust
km/h
Spd
kts
Gust
kts
30/06:00pm 25.1 20.5 9.8 38 8.5 SSE 24 33 13 18 1021.3 1021.1 0.0
30/05:30pm 25.9 21.2 9.3 35 9.1 SSE 24 33 13 18 1021.1 1020.9 0.0
30/05:00pm 26.4 22.2 9.7 35 9.3 SSE 22 32 12 17 1020.8 1020.6 0.0
30/04:30pm 26.3 22.3 10.5 37 8.9 SSE 22 32 12 17 1020.7 1020.5 0.0
30/04:00pm 26.2 21.8 10.4 37 8.9 SSE 24 33 13 18 1020.6 1020.4 0.0
30/03:30pm 27.2 23.2 10.4 35 9.5 SSE 22 30 12 16 1020.6 1020.4 0.0
30/03:00pm 26.6 22.9 11.5 39 8.7 SSE 22 32 12 17 1020.7 1020.5 0.0
30/02:30pm 26.9 23.8 12.2 40 8.6 SSE 20 30 11 16 1020.8 1020.6 0.0
30/02:00pm 26.1 23.3 12.5 42 7.9 SSE 19 26 10 14 1021.0 1020.8 0.0
30/01:30pm 25.8 23.0 12.6 44 7.7 SSE 19 30 10 16 1021.6 1021.4 0.0
30/01:00pm 25.7 23.4 12.9 45 7.5 SE 17 26 9 14 1022.4 1022.2 0.0
30/12:30pm 25.1 22.8 13.0 47 7.1 SSE 17 24 9 13 1022.8 1022.6 0.0
30/12:00pm 24.7 22.7 12.6 47 7.0 SE 15 24 8 13 1023.2 1023.0 0.0
30/11:30am 23.3 20.6 11.7 48 6.6 SE 17 24 9 13 1023.6 1023.4 0.0
30/11:00am 22.8 19.5 11.5 49 6.3 SSE 20 28 11 15 1023.9 1023.6 0.0
30/10:30am 21.8 18.4 11.2 51 5.9 SSE 20 26 11 14 1023.9 1023.6 0.0
30/10:00am 20.9 17.1 11.0 53 5.5 SE 22 26 12 14 1023.8 1023.5 0.0
30/09:30am 19.7 15.9 11.2 58 4.7 SE 22 32 12 17 1023.6 1023.4 0.0
30/09:00am 18.7 15.2 11.0 61 4.2 SE 20 28 11 15 1023.2 1023.0 0.0
30/08:30am 17.9 14.6 11.0 64 3.8 SE 19 28 10 15 1022.9 1022.7 0.0
30/08:00am 17.2 14.2 10.8 66 3.4 SSE 17 22 9 12 1022.5 1022.3 0.0
30/07:30am 16.8 14.2 10.6 67 3.3 SSE 15 20 8 11 1022.2 1022.0 0.0
30/07:00am 17.0 14.3 10.4 65 3.5 SSE 15 22 8 12 1021.7 1021.5 0.0
30/06:30am 17.5 14.4 10.4 63 3.8 SSE 17 24 9 13 1021.4 1021.2 0.0
30/06:00am 18.0 14.7 10.9 63 3.9 SSE 19 28 10 15 1021.2 1021.0 0.0
30/05:30am 18.2 14.9 10.8 62 4.0 SSE 19 28 10 15 1021.1 1020.9 0.0
30/05:00am 18.5 15.5 10.6 60 4.3 SSE 17 22 9 12 1021.1 1020.9 0.0
30/04:30am 18.9 15.9 10.5 58 4.6 SSE 17 22 9 12 1021.2 1021.0 0.0
30/04:00am 19.0 16.2 10.0 56 4.8 SSE 15 20 8 11 1021.2 1021.0 0.0
30/03:30am 19.8 16.3 10.2 54 5.2 SSE 19 28 10 15 1021.2 1021.0 0.0
30/03:00am 20.6 16.2 10.4 52 5.6 SSE 24 33 13 18 1021.2 1021.0 0.0
30/02:30am 20.7 17.4 9.6 49 6.0 SSE 17 24 9 13 1021.1 1020.9 0.0
30/02:00am 21.1 17.8 9.4 47 6.3 SE 17 22 9 12 1021.0 1020.8 0.0
30/01:30am 21.6 18.2 9.2 45 6.7 SSE 17 24 9 13 1021.2 1021.0 0.0
30/01:00am 22.2 18.5 9.4 44 6.9 SSE 19 24 10 13 1021.2 1021.0 0.0
30/12:30am 22.2 19.1 9.0 43 7.1 SSE 15 19 8 10 1021.3 1021.1 0.0
30/12:00am 22.8 19.3 8.9 41 7.5 SSE 17 24 9 13 1021.3 1021.1 0.0
 
Date/Time
EST
Temp
°C
App
Temp
°C
Dew
Point
Rel
Hum
%
Delta-T
°C
Wind Press
QNH
hPa
Press
MSL
hPa
Rain
since 9 am
mm
Dir
 
Spd
km/h
Gust
km/h
Spd
kts
Gust
kts
29/11:30pm 23.0 19.6 9.0 41 7.6 SSE 17 20 9 11 1021.4 1021.2 0.0
29/11:00pm 22.9 19.8 9.0 41 7.5 SSE 15 20 8 11 1021.5 1021.3 0.0
29/10:30pm 22.8 20.1 8.9 41 7.5 SSE 13 15 7 8 1021.4 1021.2 0.0
29/10:00pm 23.1 20.0 8.8 40 7.7 SSE 15 19 8 10 1021.4 1021.2 0.0
29/09:30pm 23.2 20.9 8.9 40 7.7 SSE 11 17 6 9 1021.2 1021.0 0.0
29/09:00pm 23.5 21.1 8.8 39 7.9 SSE 11 15 6 8 1021.1 1020.9 0.0
29/08:30pm 24.0 21.5 8.4 37 8.4 SSE 11 15 6 8 1020.8 1020.6 0.0
29/08:00pm 24.2 22.1 8.2 36 8.6 S 9 11 5 6 1020.6 1020.4 0.0
29/07:30pm 24.1 22.0 8.1 36 8.6 S 9 9 5 5 1020.2 1019.9 0.0
29/07:00pm 24.2 22.1 8.2 36 8.6 SSE 9 11 5 6 1019.8 1019.5 0.0
29/06:30pm 25.0 22.1 8.1 34 9.1 SE 13 17 7 9 1019.3 1019.0 0.0
29/06:00pm 26.4 23.6 8.4 32 9.8 ESE 13 19 7 10 1019.0 1018.7 0.0
29/05:30pm 27.2 24.0 8.6 31 10.2 SE 15 20 8 11 1018.9 1018.6 0.0
29/05:00pm 27.5 25.6 8.9 31 10.3 SSE 9 15 5 8 1018.8 1018.5 0.0
29/04:30pm 27.5 24.8 8.9 31 10.3 ESE 13 19 7 10 1018.7 1018.4 0.0
29/04:00pm 27.5 25.0 8.4 30 10.4 E 11 15 6 8 1018.7 1018.4 0.0
29/03:30pm 27.6 24.8 8.5 30 10.5 ESE 13 28 7 15 1018.8 1018.5 0.0
29/03:00pm 28.2 26.5 8.5 29 10.8 ESE 7 15 4 8 1019.2 1018.9 0.0
29/02:30pm 27.8 25.0 8.6 30 10.6 SE 13 19 7 10 1019.6 1019.3 0.0
29/02:00pm 28.8 27.4 9.5 30 10.8 ESE 7 19 4 10 1020.0 1019.7 0.0
29/01:30pm 28.4 25.6 10.1 32 10.4 ESE 15 24 8 13 1020.5 1020.2 0.0
29/01:00pm 27.8 25.5 10.5 34 9.8 NE 13 22 7 12 1020.9 1020.7 0.0
29/12:30pm 27.1 24.4 10.3 35 9.5 E 15 26 8 14 1021.5 1021.3 0.0
29/12:00pm 27.2 24.2 10.8 36 9.3 E 17 28 9 15 1022.0 1021.8 0.0
29/11:30am 26.4 22.8 10.5 37 9.0 E 20 28 11 15 1022.2 1022.0 0.0
29/11:00am 25.6 21.1 10.2 38 8.6 ENE 24 30 13 16 1022.5 1022.3 0.0
29/10:30am 25.4 20.5 10.1 38 8.5 ENE 26 33 14 18 1022.7 1022.5 0.0
29/10:00am 25.0 20.0 9.7 38 8.4 ENE 26 33 14 18 1022.7 1022.5 0.0
29/09:30am 22.9 19.1 9.0 41 7.5 E 19 24 10 13 1022.9 1022.7 0.0
29/09:00am 22.0 18.8 8.5 42 7.2 E 15 22 8 12 1022.6 1022.4 0.0
29/08:30am 21.1 17.8 8.0 43 6.9 E 15 19 8 10 1022.3 1022.1 0.0
29/08:00am 20.7 16.6 7.7 43 6.7 E 19 24 10 13 1022.0 1021.8 0.0
29/07:30am 20.2 17.2 7.6 44 6.5 ENE 13 17 7 9 1021.7 1021.5 0.0
29/07:00am 19.2 16.7 6.7 44 6.3 E 9 11 5 6 1021.5 1021.3 0.0
29/06:30am 19.6 16.7 6.4 42 6.7 E 11 13 6 7 1021.5 1021.3 0.0
29/06:00am 19.4 16.8 6.2 42 6.6 ESE 9 13 5 7 1021.3 1021.1 0.0
29/05:30am 19.8 17.2 6.2 41 6.8 ESE 9 15 5 8 1021.2 1021.0 0.0
29/05:00am 19.8 17.2 6.2 41 6.8 E 9 13 5 7 1021.3 1021.1 0.0
29/04:30am 19.9 17.3 6.3 41 6.9 E 9 11 5 6 1021.3 1021.1 0.0
29/04:00am 19.9 17.0 6.3 41 6.8 ESE 11 15 6 8 1021.3 1021.1 0.0
29/03:30am 19.6 17.1 6.4 42 6.7 E 9 11 5 6 1021.4 1021.2 0.0
29/03:00am 19.6 17.1 6.4 42 6.6 ESE 9 13 5 7 1021.5 1021.3 0.0
29/02:30am 19.4 17.3 6.5 43 6.5 ESE 7 9 4 5 1021.7 1021.5 0.0
29/02:00am 18.2 16.5 6.1 45 6.0 ENE 4 6 2 3 1022.0 1021.8 0.0
29/01:30am 18.1 15.5 6.0 45 6.0 ESE 9 11 5 6 1022.1 1021.9 0.0
29/01:00am 18.4 15.8 6.3 45 6.0 ESE 9 11 5 6 1022.2 1022.0 0.0
29/12:30am 17.5 14.4 3.4 39 6.6 ESE 9 9 5 5 1022.5 1022.3 0.0
29/12:00am 18.5 16.0 3.6 37 7.0 ESE 6 6 3 3 1022.7 1022.5 0.0
 
Date/Time
EST
Temp
°C
App
Temp
°C
Dew
Point
Rel
Hum
%
Delta-T
°C
Wind Press
QNH
hPa
Press
MSL
hPa
Rain
since 9 am
mm
Dir
 
Spd
km/h
Gust
km/h
Spd
kts
Gust
kts
28/11:30pm 19.7 17.2 3.8 35 7.6 E 6 7 3 4 1022.9 1022.7 0.0
28/11:00pm 20.1 17.6 3.8 34 7.8 SE 6 6 3 3 1022.9 1022.7 0.0
28/10:30pm 20.6 18.9 3.8 33 8.1 SE 2 6 1 3 1023.1 1022.9 0.0
28/10:00pm 20.7 18.1 4.3 34 8.0 SE 7 9 4 5 1023.0 1022.8 0.0
28/09:30pm 20.4 17.9 3.6 33 8.1 ESE 6 7 3 4 1023.0 1022.8 0.0
28/09:00pm 21.3 18.7 4.0 32 8.4 SE 7 9 4 5 1023.0 1022.8 0.0
28/08:30pm 21.5 18.4 3.7 31 8.6 ENE 9 13 5 7 1022.6 1022.4 0.0
28/08:00pm 21.3 18.7 4.0 32 8.4 SE 7 9 4 5 1022.3 1022.1 0.0
28/07:30pm 21.7 18.3 3.9 31 8.7 SE 11 13 6 7 1021.8 1021.6 0.0
28/07:00pm 22.4 19.4 4.0 30 9.0 ESE 9 9 5 5 1021.4 1021.2 0.0
28/06:30pm 24.0 21.4 4.4 28 9.8 E 7 9 4 5 1021.2 1021.0 0.0
28/06:00pm 25.4 23.0 5.1 27 10.3 ESE 7 11 4 6 1020.9 1020.7 0.0
28/05:30pm 25.6 23.2 4.1 25 10.8 E 6 11 3 6 1020.7 1020.5 0.0
28/05:00pm 26.9 24.6 4.6 24 11.4 E 6 9 3 5 1020.5 1020.2 0.0
28/04:30pm 27.3 24.1 5.0 24 11.5 E 11 17 6 9 1020.5 1020.2 0.0
28/04:00pm 26.3 23.9 5.3 26 10.8 NNE 7 17 4 9 1020.6 1020.4 0.0
28/03:30pm 26.9 23.9 5.8 26 11.0 ESE 11 19 6 10 1020.6 1020.4 0.0
28/03:00pm 27.8 24.8 6.0 25 11.4 ENE 11 22 6 12 1020.8 1020.6 0.0
28/02:30pm 27.4 24.1 6.2 26 11.2 NE 13 19 7 10 1021.1 1020.9 0.0
28/02:00pm 27.5 23.8 6.3 26 11.2 ENE 15 24 8 13 1021.4 1021.2 0.0
28/01:30pm 26.6 22.9 8.1 31 10.0 ENE 17 26 9 14 1021.8 1021.6 0.0
28/01:00pm 26.1 22.8 8.1 32 9.7 ENE 15 30 8 16 1022.5 1022.3 0.0
28/12:30pm 25.4 21.5 8.8 35 9.1 ENE 19 30 10 16 1023.1 1022.9 0.0
28/12:00pm 25.4 21.9 8.8 35 9.0 E 17 26 9 14 1023.6 1023.4 0.0
28/11:30am 23.2 19.1 7.7 37 8.2 ESE 19 24 10 13 1024.1 1023.8 0.0
28/11:00am 21.5 17.6 7.0 39 7.5 ESE 17 24 9 13 1024.8 1024.5 0.0
28/10:30am 20.0 15.6 6.7 42 6.8 ESE 19 26 10 14 1025.1 1024.8 0.0
28/10:00am 18.4 13.9 5.9 44 6.2 SE 19 22 10 12 1025.2 1024.9 0.0
28/09:30am 16.7 12.1 5.6 48 5.4 SE 19 22 10 12 1025.2 1024.9 0.0
28/09:00am 15.4 11.1 5.3 51 4.8 SE 17 22 9 12 1025.0 1024.7 0.0
28/08:30am 13.7 10.0 4.6 54 4.2 SE 13 17 7 9 1024.9 1024.6 0.0
28/08:00am 12.0 9.8 3.3 55 3.9 ESE 4 7 2 4 1024.7 1024.4 0.0
28/07:30am 11.8 8.6 3.3 56 3.8 SE 9 9 5 5 1024.4 1024.1 0.0
28/07:00am 12.4 9.3 3.6 55 3.9 SE 9 11 5 6 1024.2 1023.9 0.0
28/06:30am 12.7 9.6 3.4 53 4.2 SSE 9 13 5 7 1024.0 1023.7 0.0
28/06:00am 12.6 9.4 3.3 53 4.1 SSE 9 13 5 7 1023.8 1023.5 0.0
28/05:30am 11.9 9.1 3.2 55 3.9 SSE 7 9 4 5 1023.5 1023.3 0.0
28/05:00am 10.2 7.1 1.6 55 3.6 S 7 9 4 5 1023.5 1023.3 0.0
28/04:30am 9.8 6.8 1.7 57 3.4 S 7 9 4 5 1023.5 1023.3 0.0
28/04:00am 9.3 6.3 0.7 55 3.5 SE 6 7 3 4 1023.4 1023.2 0.0
28/03:30am 9.5 6.4 1.4 57 3.4 SSE 7 9 4 5 1023.4 1023.2 0.0
28/03:00am 9.1 5.8 0.3 54 3.5 S 7 9 4 5 1023.5 1023.3 0.0
28/02:30am 9.9 6.3 0.8 53 3.8 SE 9 11 5 6 1023.8 1023.5 0.0
28/02:00am 10.3 7.3 0.9 52 3.9 SSE 6 9 3 5 1023.9 1023.6 0.0
28/01:30am 10.4 7.2 1.0 52 3.9 SE 7 7 4 4 1023.9 1023.6 0.0
28/01:00am 10.5 7.4 0.3 49 4.2 ESE 6 6 3 3 1024.1 1023.8 0.0
28/12:30am 10.2 6.5 -0.3 48 4.2 SE 9 11 5 6 1024.0 1023.7 0.0
28/12:00am 11.0 7.3 0.1 47 4.5 SE 9 11 5 6 1024.2 1023.9 0.0
 
Date/Time
EST
Temp
°C
App
Temp
°C
Dew
Point
Rel
Hum
%
Delta-T
°C
Wind Press
QNH
hPa
Press
MSL
hPa
Rain
since 9 am
mm
Dir
 
Spd
km/h
Gust
km/h
Spd
kts
Gust
kts
27/11:30pm 11.7 8.5 0.5 46 4.7 SE 7 9 4 5 1024.4 1024.1 0.0
27/11:00pm 11.8 8.1 0.0 44 4.9 SE 9 11 5 6 1024.6 1024.3 0.0
27/10:30pm 13.4 10.2 0.8 42 5.4 SE 7 9 4 5 1024.6 1024.3 0.0
27/10:00pm 13.9 10.3 0.9 41 5.6 SE 9 9 5 5 1024.7 1024.4 0.0
27/09:30pm 15.1 11.2 0.9 38 6.2 SE 11 13 6 7 1024.5 1024.2 0.0
27/09:00pm 16.0 12.1 1.0 36 6.6 SSE 11 11 6 6 1024.4 1024.1 0.0
27/08:30pm 17.1 12.8 1.1 34 7.1 SSE 13 15 7 8 1023.9 1023.6 0.0
27/08:00pm 16.0 12.3 -0.2 33 6.9 SE 9 11 5 6 1023.4 1023.2 0.0
27/07:30pm 17.5 13.4 -0.2 30 7.7 SE 11 13 6 7 1023.2 1023.0 0.0
27/07:00pm 19.6 15.5 0.1 27 8.6 SE 11 13 6 7 1022.7 1022.5 0.0
27/06:30pm 20.8 16.7 0.1 25 9.3 SE 11 13 6 7 1022.3 1022.1 0.0

Other Formats:

Comma delimited format used in spreadsheet applications
http://www.bom.gov.au/fwo/IDQ60801/IDQ60801.94344.axf

JavaScript Object Notation format (JSON) in row-major order
http://www.bom.gov.au/fwo/IDQ60801/IDQ60801.94344.json